Time;durP1;ratioP1;P1;durP2;ratioP2;P2;SDS_P1;SDS_P2;PMS_P1;PMS_P2;Temp;Humidity;BMP_temperature;BMP_pressure;BME280_temperature;BME280_humidity;BME280_pressure;Samples;Min_cycle;Max_cycle;Signal;HPM_P1;HPM_P2
2023/07/26 00:02:03;;;;;;;39.90;23.92;;;;;;;;;;5099462;28;20039;-84
2023/07/26 00:04:29;;;;;;;39.60;22.98;;;;;;;;;;5101783;28;20062;-84
2023/07/26 00:06:54;;;;;;;36.30;22.70;;;;;;;;;;5105928;28;20027;-84
2023/07/26 00:09:19;;;;;;;35.60;23.35;;;;;;;;;;5095509;28;20024;-84
2023/07/26 00:11:45;;;;;;;35.85;23.73;;;;;;;;;;5095214;28;20020;-84
2023/07/26 00:14:10;;;;;;;35.50;22.70;;;;;;;;;;5095244;28;20039;-84
2023/07/26 00:16:36;;;;;;;39.47;24.05;;;;;;;;;;5095285;28;20054;-84
2023/07/26 00:19:01;;;;;;;42.17;24.05;;;;;;;;;;5095683;28;20028;-83
2023/07/26 00:21:27;;;;;;;39.40;23.85;;;;;;;;;;5077282;28;20039;-84
2023/07/26 00:23:53;;;;;;;33.30;23.20;;;;;;;;;;5093999;28;20039;-84
2023/07/26 00:26:18;;;;;;;35.63;23.23;;;;;;;;;;5077121;28;20503;-83
2023/07/26 00:28:44;;;;;;;39.97;23.02;;;;;;;;;;5105751;28;20042;-82
2023/07/26 00:31:09;;;;;;;37.88;23.25;;;;;;;;;;5097147;28;20130;-84
2023/07/26 00:33:34;;;;;;;32.63;22.52;;;;;;;;;;5094958;28;20032;-83
2023/07/26 00:36:00;;;;;;;36.90;22.98;;;;;;;;;;5094941;28;20024;-84
2023/07/26 00:38:25;;;;;;;40.47;23.92;;;;;;;;;;5095055;28;20036;-84
2023/07/26 00:40:51;;;;;;;36.53;23.40;;;;;;;;;;5093906;28;20039;-84
2023/07/26 00:43:16;;;;;;;38.08;23.63;;;;;;;;;;5094392;28;20130;-84
2023/07/26 00:45:42;;;;;;;34.60;22.80;;;;;;;;;;5077038;28;20142;-84
2023/07/26 00:48:07;;;;;;;37.70;24.05;;;;;;;;;;5094620;28;20031;-84
2023/07/26 00:50:33;;;;;;;35.22;23.30;;;;;;;;;;5043931;28;20042;-84
2023/07/26 00:52:58;;;;;;;36.35;23.73;;;;;;;;;;5093587;28;20369;-83
2023/07/26 00:55:24;;;;;;;39.95;23.77;;;;;;;;;;5084302;28;20031;-84
2023/07/26 00:57:49;;;;;;;35.13;23.27;;;;;;;;;;5079935;28;20028;-84
2023/07/26 01:00:14;;;;;;;37.30;23.08;;;;;;;;;;5060024;28;20034;-83
2023/07/26 01:02:46;;;;;;;38.13;22.52;;;;;;;;;;5076775;28;20035;-84
2023/07/26 01:05:11;;;;;;;40.67;23.08;;;;;;;;;;5043755;28;20040;-84
2023/07/26 01:08:00;;;;;;;38.38;23.50;;;;;;;;;;5076800;28;20118;-84
2023/07/26 01:10:47;;;;;;;38.75;22.13;;;;;;;;;;5079447;28;20098;-84
2023/07/26 01:13:30;;;;;;;37.50;22.13;;;;;;;;;;5094341;28;20115;-84
2023/07/26 01:15:56;;;;;;;42.75;23.30;;;;;;;;;;5089706;28;20012;-84
2023/07/26 01:18:21;;;;;;;35.67;23.20;;;;;;;;;;5078270;28;20423;-84
2023/07/26 01:20:47;;;;;;;37.42;23.13;;;;;;;;;;5095554;28;20053;-84
2023/07/26 01:23:12;;;;;;;35.08;23.60;;;;;;;;;;5094746;28;20349;-85
2023/07/26 01:25:37;;;;;;;39.83;23.30;;;;;;;;;;5095251;28;20055;-85
2023/07/26 01:28:03;;;;;;;37.53;23.10;;;;;;;;;;5076536;28;20063;-84
2023/07/26 01:30:30;;;;;;;45.47;23.55;;;;;;;;;;5094352;28;20020;-84
2023/07/26 01:32:57;;;;;;;43.65;22.88;;;;;;;;;;5076207;28;20426;-84
2023/07/26 01:35:23;;;;;;;42.08;23.23;;;;;;;;;;5076504;28;20043;-84
2023/07/26 01:37:48;;;;;;;37.15;23.55;;;;;;;;;;5080747;28;20053;-84
2023/07/26 01:40:14;;;;;;;35.97;23.50;;;;;;;;;;5092434;28;20445;-85
2023/07/26 01:42:39;;;;;;;36.58;23.30;;;;;;;;;;5098571;28;20024;-85
2023/07/26 01:45:05;;;;;;;39.28;23.48;;;;;;;;;;5080630;28;20036;-84
2023/07/26 01:47:31;;;;;;;37.95;22.77;;;;;;;;;;5098593;28;20032;-85
2023/07/26 01:49:56;;;;;;;36.08;23.85;;;;;;;;;;5098160;28;20357;-84
2023/07/26 01:52:23;;;;;;;38.25;22.85;;;;;;;;;;5063597;28;20032;-85
2023/07/26 01:54:49;;;;;;;34.63;22.77;;;;;;;;;;5079886;28;20043;-85
2023/07/26 01:57:14;;;;;;;35.63;23.02;;;;;;;;;;5098171;28;20024;-84
2023/07/26 01:59:40;;;;;;;37.40;24.13;;;;;;;;;;5098245;28;20053;-84
2023/07/26 02:02:05;;;;;;;34.03;22.80;;;;;;;;;;5088753;28;20028;-84
2023/07/26 02:04:30;;;;;;;39.95;22.40;;;;;;;;;;5104904;28;20059;-84
2023/07/26 02:06:56;;;;;;;42.20;24.83;;;;;;;;;;5098188;28;20028;-84
2023/07/26 02:09:21;;;;;;;43.67;23.67;;;;;;;;;;5097818;28;20032;-84
2023/07/26 02:11:47;;;;;;;35.20;21.60;;;;;;;;;;5097874;28;20114;-84
2023/07/26 02:14:12;;;;;;;36.40;22.52;;;;;;;;;;5097887;28;20445;-84
2023/07/26 02:16:37;;;;;;;38.30;23.27;;;;;;;;;;5097550;28;20426;-84
2023/07/26 02:19:03;;;;;;;35.10;22.45;;;;;;;;;;5097656;28;20039;-84
2023/07/26 02:21:28;;;;;;;38.08;22.23;;;;;;;;;;5097659;28;20035;-84
2023/07/26 02:24:12;;;;;;;37.65;21.52;;;;;;;;;;5097904;28;20032;-84
2023/07/26 02:26:37;;;;;;;37.08;22.80;;;;;;;;;;5091519;28;20053;-85
2023/07/26 02:29:09;;;;;;;40.08;22.52;;;;;;;;;;5070110;28;20062;-83
2023/07/26 02:31:34;;;;;;;35.67;21.95;;;;;;;;;;5097572;28;20514;-85
2023/07/26 02:34:00;;;;;;;36.00;23.55;;;;;;;;;;5097629;28;20078;-85
2023/07/26 02:36:25;;;;;;;34.42;21.10;;;;;;;;;;5097270;28;20114;-84
2023/07/26 02:38:51;;;;;;;35.20;22.30;;;;;;;;;;5097179;28;20034;-84
2023/07/26 02:41:16;;;;;;;35.92;22.55;;;;;;;;;;5098446;28;20113;-85
2023/07/26 02:43:41;;;;;;;41.30;21.77;;;;;;;;;;5099108;28;20027;-84
2023/07/26 02:46:07;;;;;;;39.80;22.95;;;;;;;;;;5079607;28;20032;-85
2023/07/26 02:48:33;;;;;;;32.60;22.58;;;;;;;;;;5050577;28;20126;-84
2023/07/26 02:50:58;;;;;;;36.53;22.30;;;;;;;;;;5106612;28;20038;-85
2023/07/26 02:53:24;;;;;;;34.70;21.85;;;;;;;;;;5097033;28;20493;-85
2023/07/26 02:55:49;;;;;;;39.33;23.63;;;;;;;;;;5097212;28;20398;-85
2023/07/26 02:58:15;;;;;;;35.92;23.15;;;;;;;;;;5096709;28;20529;-85
2023/07/26 03:00:40;;;;;;;39.10;24.08;;;;;;;;;;5078999;28;20032;-85
2023/07/26 03:03:06;;;;;;;40.33;25.15;;;;;;;;;;5068015;28;20431;-85
2023/07/26 03:05:33;;;;;;;40.88;25.92;;;;;;;;;;5056887;28;20028;-85
2023/07/26 03:07:58;;;;;;;44.45;26.67;;;;;;;;;;5056621;28;20029;-85
2023/07/26 03:10:24;;;;;;;36.38;25.85;;;;;;;;;;5056604;28;20040;-85
2023/07/26 03:12:55;;;;;;;41.42;26.08;;;;;;;;;;5068731;28;20009;-83
2023/07/26 03:15:22;;;;;;;44.92;27.80;;;;;;;;;;5057192;28;20029;-85
2023/07/26 03:17:47;;;;;;;48.08;25.95;;;;;;;;;;5056635;28;20108;-85
2023/07/26 03:20:12;;;;;;;39.22;25.35;;;;;;;;;;5038484;28;20056;-85
2023/07/26 03:22:38;;;;;;;37.92;25.65;;;;;;;;;;5056659;28;20116;-84
2023/07/26 03:25:03;;;;;;;42.88;25.50;;;;;;;;;;5056242;28;20446;-84
2023/07/26 03:27:29;;;;;;;39.80;24.77;;;;;;;;;;5038465;28;20029;-85
2023/07/26 03:29:55;;;;;;;36.97;24.15;;;;;;;;;;5055713;28;20438;-85
2023/07/26 03:32:20;;;;;;;39.70;24.23;;;;;;;;;;5038306;28;20114;-85
2023/07/26 03:34:47;;;;;;;44.97;24.33;;;;;;;;;;5056587;28;20105;-82
2023/07/26 03:37:12;;;;;;;40.67;24.58;;;;;;;;;;5064255;28;20036;-84
2023/07/26 03:39:37;;;;;;;35.50;24.65;;;;;;;;;;5056447;28;20442;-85
2023/07/26 03:42:03;;;;;;;41.50;25.95;;;;;;;;;;5055677;28;20037;-84
2023/07/26 03:44:28;;;;;;;40.92;26.02;;;;;;;;;;5055641;28;20041;-84
2023/07/26 03:46:54;;;;;;;38.10;24.88;;;;;;;;;;5056263;28;20029;-84
2023/07/26 03:49:19;;;;;;;38.83;25.45;;;;;;;;;;5054449;28;20086;-85
2023/07/26 03:51:45;;;;;;;44.80;25.42;;;;;;;;;;5055474;28;20106;-85
2023/07/26 03:54:10;;;;;;;40.50;24.67;;;;;;;;;;5054326;28;20115;-85
2023/07/26 03:56:36;;;;;;;42.58;25.17;;;;;;;;;;5055580;28;20062;-85
2023/07/26 03:59:01;;;;;;;42.80;25.10;;;;;;;;;;5061267;28;20036;-84
2023/07/26 04:01:27;;;;;;;35.25;23.85;;;;;;;;;;5062833;28;20040;-85
2023/07/26 04:03:52;;;;;;;41.40;25.00;;;;;;;;;;5083314;28;20044;-85
2023/07/26 04:06:18;;;;;;;37.28;25.05;;;;;;;;;;5095647;28;20020;-85
2023/07/26 04:08:43;;;;;;;37.13;23.35;;;;;;;;;;5095643;28;20449;-84
2023/07/26 04:11:10;;;;;;;39.53;23.27;;;;;;;;;;5095505;28;20034;-85
2023/07/26 04:13:36;;;;;;;37.97;23.35;;;;;;;;;;5060548;28;20031;-85
2023/07/26 04:16:01;;;;;;;36.25;23.50;;;;;;;;;;5096042;28;20366;-84
2023/07/26 04:18:27;;;;;;;43.45;22.88;;;;;;;;;;5093805;28;20409;-84
2023/07/26 04:20:53;;;;;;;42.35;23.85;;;;;;;;;;5095397;28;20369;-84
2023/07/26 04:23:19;;;;;;;38.38;24.42;;;;;;;;;;5102300;28;20035;-83
2023/07/26 04:25:53;;;;;;;37.95;23.88;;;;;;;;;;5095579;28;20032;-85
2023/07/26 04:28:18;;;;;;;38.72;23.35;;;;;;;;;;5095142;28;20407;-85
2023/07/26 04:30:44;;;;;;;44.85;23.65;;;;;;;;;;5095723;28;20047;-85
2023/07/26 04:33:09;;;;;;;45.88;24.52;;;;;;;;;;5094928;28;20085;-84
2023/07/26 04:35:35;;;;;;;39.63;23.42;;;;;;;;;;5094723;28;20036;-84
2023/07/26 04:38:00;;;;;;;38.05;22.85;;;;;;;;;;5095218;28;20035;-85
2023/07/26 04:40:25;;;;;;;40.65;23.58;;;;;;;;;;5094942;28;20036;-84
2023/07/26 04:42:51;;;;;;;36.03;23.40;;;;;;;;;;5094846;28;20024;-84
2023/07/26 04:45:16;;;;;;;34.33;23.60;;;;;;;;;;5095360;28;20419;-84
2023/07/26 04:47:41;;;;;;;40.35;24.05;;;;;;;;;;5103792;28;20446;-85
2023/07/26 04:50:07;;;;;;;35.78;23.75;;;;;;;;;;5077083;28;20031;-84
2023/07/26 04:52:37;;;;;;;40.35;24.08;;;;;;;;;;5094507;28;20028;-85
2023/07/26 04:55:04;;;;;;;45.10;24.27;;;;;;;;;;5094797;28;20034;-84
2023/07/26 04:57:30;;;;;;;42.25;23.42;;;;;;;;;;5094831;28;20431;-84
2023/07/26 04:59:55;;;;;;;38.35;23.25;;;;;;;;;;5095234;28;20074;-85
2023/07/26 05:02:20;;;;;;;44.65;22.85;;;;;;;;;;5097071;28;20032;-84
2023/07/26 05:04:46;;;;;;;38.10;21.80;;;;;;;;;;5110608;28;20012;-83
2023/07/26 05:07:11;;;;;;;37.60;21.58;;;;;;;;;;5114040;28;20031;-84
2023/07/26 05:09:37;;;;;;;44.67;23.33;;;;;;;;;;5100432;28;20461;-85
2023/07/26 05:12:02;;;;;;;38.10;22.42;;;;;;;;;;5078563;28;20036;-84
2023/07/26 05:14:28;;;;;;;38.08;22.10;;;;;;;;;;5094480;28;20020;-84
2023/07/26 05:16:53;;;;;;;33.47;21.55;;;;;;;;;;5094377;28;20030;-84
2023/07/26 05:19:19;;;;;;;37.63;21.45;;;;;;;;;;5059698;28;20500;-84
2023/07/26 05:21:44;;;;;;;38.40;20.30;;;;;;;;;;5094630;28;20062;-85
2023/07/26 05:24:11;;;;;;;35.72;19.15;;;;;;;;;;5094436;28;20415;-85
2023/07/26 05:26:36;;;;;;;31.23;19.40;;;;;;;;;;5094135;28;20111;-85
2023/07/26 05:29:01;;;;;;;32.35;17.42;;;;;;;;;;5094296;28;20106;-83
2023/07/26 05:31:27;;;;;;;34.95;18.50;;;;;;;;;;5094599;28;20511;-85
2023/07/26 05:33:52;;;;;;;34.15;17.00;;;;;;;;;;5105162;28;20024;-85
2023/07/26 05:36:18;;;;;;;31.42;16.48;;;;;;;;;;5094972;28;20362;-85
2023/07/26 05:38:43;;;;;;;33.50;15.38;;;;;;;;;;5094773;28;20036;-85
2023/07/26 05:41:09;;;;;;;31.55;14.52;;;;;;;;;;5094123;28;20043;-85
2023/07/26 05:43:34;;;;;;;24.88;14.10;;;;;;;;;;5094333;28;20060;-86
2023/07/26 05:46:01;;;;;;;26.25;13.50;;;;;;;;;;5094534;28;20028;-85
2023/07/26 05:48:26;;;;;;;46.53;16.02;;;;;;;;;;5076469;28;20028;-85
2023/07/26 05:50:52;;;;;;;44.08;14.95;;;;;;;;;;5059383;28;20385;-85
2023/07/26 05:53:17;;;;;;;37.53;14.77;;;;;;;;;;5094172;28;20039;-86
2023/07/26 05:55:42;;;;;;;31.75;13.82;;;;;;;;;;5098701;28;20043;-83
2023/07/26 05:58:08;;;;;;;27.92;13.35;;;;;;;;;;5088964;28;20031;-83
2023/07/26 06:00:33;;;;;;;31.15;13.30;;;;;;;;;;5094882;28;20028;-85
2023/07/26 06:03:00;;;;;;;26.45;12.95;;;;;;;;;;5093905;28;20052;-84
2023/07/26 06:05:26;;;;;;;28.65;12.00;;;;;;;;;;5094261;28;20101;-84
2023/07/26 06:07:52;;;;;;;29.77;11.68;;;;;;;;;;5076645;28;20096;-83
2023/07/26 06:10:17;;;;;;;27.33;11.73;;;;;;;;;;5095120;28;20076;-84
2023/07/26 06:12:43;;;;;;;28.08;10.35;;;;;;;;;;5095740;28;20028;-85
2023/07/26 06:15:08;;;;;;;31.77;10.10;;;;;;;;;;5099641;28;20032;-84
2023/07/26 06:17:34;;;;;;;25.42;9.90;;;;;;;;;;5100885;28;20087;-84
2023/07/26 06:19:59;;;;;;;35.45;11.48;;;;;;;;;;5108345;28;20048;-84
2023/07/26 06:22:25;;;;;;;34.75;11.52;;;;;;;;;;5115662;28;20012;-84
2023/07/26 06:24:53;;;;;;;32.42;10.20;;;;;;;;;;5102904;22;20554;-83
2023/07/26 06:27:27;;;;;;;34.88;10.13;;;;;;;;;;5039019;28;20096;-83
2023/07/26 06:29:53;;;;;;;33.95;9.23;;;;;;;;;;5039218;28;20029;-82
2023/07/26 06:32:18;;;;;;;29.77;9.13;;;;;;;;;;5039307;28;20029;-83
2023/07/26 06:34:44;;;;;;;34.08;10.30;;;;;;;;;;5039465;28;20052;-82
2023/07/26 06:37:09;;;;;;;31.67;9.82;;;;;;;;;;5022860;28;20029;-83
2023/07/26 06:39:35;;;;;;;35.88;10.75;;;;;;;;;;5006705;28;20024;-83
2023/07/26 06:42:00;;;;;;;31.83;10.93;;;;;;;;;;5039044;28;20077;-82
2023/07/26 06:44:26;;;;;;;30.45;10.52;;;;;;;;;;5039034;28;20033;-83
2023/07/26 06:46:51;;;;;;;34.92;11.10;;;;;;;;;;5056691;28;20053;-82
2023/07/26 06:49:17;;;;;;;32.95;10.60;;;;;;;;;;5039128;28;20025;-83
2023/07/26 06:51:43;;;;;;;39.63;10.88;;;;;;;;;;5057138;28;20025;-83
2023/07/26 06:54:08;;;;;;;33.75;10.73;;;;;;;;;;5038763;28;20035;-83
2023/07/26 06:56:34;;;;;;;42.05;10.13;;;;;;;;;;5038875;28;20196;-83
2023/07/26 06:59:01;;;;;;;40.33;10.48;;;;;;;;;;5038713;28;20032;-83
2023/07/26 07:01:26;;;;;;;40.80;11.13;;;;;;;;;;5039111;28;20029;-83
2023/07/26 07:03:52;;;;;;;36.58;9.93;;;;;;;;;;5038539;28;20025;-82
2023/07/26 07:06:17;;;;;;;32.13;9.82;;;;;;;;;;5038606;28;20026;-83
2023/07/26 07:08:42;;;;;;;41.70;9.68;;;;;;;;;;5038274;28;20021;-83
2023/07/26 07:11:08;;;;;;;36.97;9.63;;;;;;;;;;5021986;28;20068;-83
2023/07/26 07:13:35;;;;;;;29.27;9.13;;;;;;;;;;5056501;28;20025;-83
2023/07/26 07:16:00;;;;;;;32.67;9.20;;;;;;;;;;5022440;28;20112;-83
2023/07/26 07:18:26;;;;;;;32.17;8.98;;;;;;;;;;5038136;28;20067;-83
2023/07/26 07:20:55;;;;;;;37.70;9.07;;;;;;;;;;5038852;28;20127;-82
2023/07/26 07:23:21;;;;;;;37.88;9.27;;;;;;;;;;5021639;28;20021;-83
2023/07/26 07:25:46;;;;;;;33.47;9.60;;;;;;;;;;5021720;28;20052;-83
2023/07/26 07:28:13;;;;;;;37.03;8.88;;;;;;;;;;5005308;28;20044;-83
2023/07/26 07:30:38;;;;;;;35.15;9.32;;;;;;;;;;5005770;28;20056;-83
2023/07/26 07:33:04;;;;;;;39.05;9.55;;;;;;;;;;5021819;28;20068;-83
2023/07/26 07:35:29;;;;;;;36.80;8.88;;;;;;;;;;5021556;28;20123;-83
2023/07/26 07:37:55;;;;;;;41.28;9.82;;;;;;;;;;5021132;28;20025;-83
2023/07/26 07:40:20;;;;;;;25.25;8.88;;;;;;;;;;5038017;28;20417;-83
2023/07/26 07:42:46;;;;;;;35.78;8.95;;;;;;;;;;5037993;28;20080;-84
2023/07/26 07:45:11;;;;;;;37.45;9.85;;;;;;;;;;5006343;28;20186;-83
2023/07/26 07:47:37;;;;;;;37.00;9.13;;;;;;;;;;5037699;28;20123;-83
2023/07/26 07:50:02;;;;;;;34.60;9.00;;;;;;;;;;5055236;28;20118;-81
2023/07/26 07:52:28;;;;;;;35.45;8.77;;;;;;;;;;5055113;28;20028;-82
2023/07/26 07:54:53;;;;;;;38.72;9.48;;;;;;;;;;5054311;28;20463;-81
2023/07/26 07:57:21;;;;;;;27.85;8.80;;;;;;;;;;5055321;28;20025;-82
2023/07/26 07:59:46;;;;;;;31.95;8.85;;;;;;;;;;5037813;28;20020;-82
2023/07/26 08:02:44;;;;;;;32.00;8.32;;;;;;;;;;5056838;28;20032;-82
2023/07/26 08:05:09;;;;;;;42.05;8.57;;;;;;;;;;5024150;28;20057;-82
2023/07/26 08:07:35;;;;;;;43.28;9.50;;;;;;;;;;5055138;28;20040;-83
2023/07/26 08:10:00;;;;;;;45.95;9.55;;;;;;;;;;5037247;28;20469;-83
2023/07/26 08:12:26;;;;;;;48.15;9.63;;;;;;;;;;5055520;28;20025;-83
2023/07/26 08:14:51;;;;;;;38.28;9.95;;;;;;;;;;5055206;28;20081;-83
2023/07/26 08:17:17;;;;;;;37.75;9.35;;;;;;;;;;5055179;28;20021;-85
2023/07/26 08:19:42;;;;;;;37.03;9.63;;;;;;;;;;5037109;28;20587;-83
2023/07/26 08:22:08;;;;;;;35.60;9.60;;;;;;;;;;5037612;28;20029;-83
2023/07/26 08:24:33;;;;;;;42.72;10.38;;;;;;;;;;5054584;28;20161;-83
2023/07/26 08:26:59;;;;;;;41.92;10.68;;;;;;;;;;5053897;28;20025;-84
2023/07/26 08:29:24;;;;;;;31.48;11.15;;;;;;;;;;5020678;28;20079;-84
2023/07/26 08:31:50;;;;;;;40.15;10.55;;;;;;;;;;5020376;28;20017;-83
2023/07/26 08:34:15;;;;;;;37.67;11.80;;;;;;;;;;5036820;28;20024;-82
2023/07/26 08:36:40;;;;;;;39.33;10.75;;;;;;;;;;5036978;28;20036;-82
2023/07/26 08:39:06;;;;;;;41.38;11.35;;;;;;;;;;5054654;28;20029;-82
2023/07/26 08:41:31;;;;;;;48.50;11.93;;;;;;;;;;5037389;28;20115;-82
2023/07/26 08:43:59;;;;;;;42.63;11.40;;;;;;;;;;5037125;28;20043;-81
2023/07/26 08:46:24;;;;;;;45.63;11.87;;;;;;;;;;5036517;28;20468;-80
2023/07/26 08:48:50;;;;;;;33.65;11.45;;;;;;;;;;5003893;28;20021;-80
2023/07/26 08:51:15;;;;;;;36.78;10.75;;;;;;;;;;5020124;28;20025;-81
2023/07/26 08:53:41;;;;;;;44.53;10.60;;;;;;;;;;5020040;28;20025;-81
2023/07/26 08:56:06;;;;;;;37.78;13.23;;;;;;;;;;5036949;28;20026;-81
2023/07/26 08:58:32;;;;;;;39.50;13.15;;;;;;;;;;5019970;28;20369;-82
2023/07/26 09:01:00;;;;;;;35.55;11.48;;;;;;;;;;5036664;28;20135;-80
2023/07/26 09:03:25;;;;;;;27.52;10.23;;;;;;;;;;5053853;28;20112;-81
2023/07/26 09:06:17;;;;;;;29.92;10.23;;;;;;;;;;5053931;28;20151;-81
2023/07/26 09:08:44;;;;;;;34.78;10.13;;;;;;;;;;5051948;28;20106;-81
2023/07/26 09:11:47;;;;;;;37.03;10.52;;;;;;;;;;5036337;28;20029;-81
2023/07/26 09:14:13;;;;;;;31.58;10.10;;;;;;;;;;5044465;28;20037;-82
2023/07/26 09:16:38;;;;;;;32.25;10.43;;;;;;;;;;5054091;28;20071;-82
2023/07/26 09:19:06;;;;;;;30.23;10.57;;;;;;;;;;5036349;28;20048;-82
2023/07/26 09:21:33;;;;;;;;;;;;;;;;;;5037158;28;20086;-82
2023/07/26 09:23:58;;;;;;;33.55;10.68;;;;;;;;;;5053932;28;19913;-82
2023/07/26 09:26:33;;;;;;;27.17;11.77;;;;;;;;;;5053780;28;20114;-82
2023/07/26 09:28:58;;;;;;;25.52;13.15;;;;;;;;;;5053669;28;20041;-81
2023/07/26 09:31:33;;;;;;;27.50;14.07;;;;;;;;;;5036437;28;20346;-82
2023/07/26 09:34:05;;;;;;;38.45;14.23;;;;;;;;;;5053935;28;20032;-82
2023/07/26 09:36:47;;;;;;;32.42;14.50;;;;;;;;;;5053983;28;20407;-81
2023/07/26 09:39:13;;;;;;;27.73;14.38;;;;;;;;;;5054141;28;20100;-82
2023/07/26 09:41:39;;;;;;;37.53;14.18;;;;;;;;;;5053680;28;20438;-82
2023/07/26 09:44:13;;;;;;;33.40;15.77;;;;;;;;;;5053581;28;20028;-81
2023/07/26 09:46:52;;;;;;;31.98;15.77;;;;;;;;;;5036605;28;20063;-82
2023/07/26 09:49:18;;;;;;;30.15;16.55;;;;;;;;;;5035597;28;20090;-81
2023/07/26 09:51:43;;;;;;;38.22;16.65;;;;;;;;;;5053602;28;20442;-82
2023/07/26 09:54:10;;;;;;;37.92;18.02;;;;;;;;;;5053553;28;20110;-82
2023/07/26 09:56:36;;;;;;;41.40;19.77;;;;;;;;;;5035803;28;20090;-81
2023/07/26 09:59:01;;;;;;;46.45;20.15;;;;;;;;;;5039486;28;20036;-82
2023/07/26 10:01:29;;;;;;;35.03;19.40;;;;;;;;;;5039394;28;20029;-81
2023/07/26 10:03:55;;;;;;;37.13;21.10;;;;;;;;;;5057255;28;20115;-82
2023/07/26 10:06:20;;;;;;;42.75;21.48;;;;;;;;;;5023491;28;20123;-82
2023/07/26 10:08:46;;;;;;;37.28;20.20;;;;;;;;;;5057620;28;20032;-82
2023/07/26 10:11:13;;;;;;;43.88;22.55;;;;;;;;;;5057123;28;20036;-82
2023/07/26 10:13:39;;;;;;;38.10;20.95;;;;;;;;;;5039465;28;20040;-82
2023/07/26 10:16:04;;;;;;;39.10;20.40;;;;;;;;;;5006348;28;20036;-81
2023/07/26 10:18:30;;;;;;;31.40;19.20;;;;;;;;;;5039421;28;20029;-81
2023/07/26 10:20:56;;;;;;;33.40;18.20;;;;;;;;;;5039313;28;20033;-81
2023/07/26 10:23:22;;;;;;;32.85;18.05;;;;;;;;;;5057058;28;20437;-80
2023/07/26 10:25:47;;;;;;;35.05;17.85;;;;;;;;;;5039026;28;20045;-81
2023/07/26 10:28:14;;;;;;;39.53;18.92;;;;;;;;;;5038942;28;20028;-79
2023/07/26 10:30:39;;;;;;;32.60;17.58;;;;;;;;;;5056678;28;20032;-80
2023/07/26 10:33:10;;;;;;;39.17;17.27;;;;;;;;;;5039316;28;20025;-81
2023/07/26 10:35:36;;;;;;;36.30;17.40;;;;;;;;;;5039122;28;20028;-81
2023/07/26 10:38:05;;;;;;;40.85;17.90;;;;;;;;;;5056742;28;20078;-81
2023/07/26 10:40:32;;;;;;;32.95;18.60;;;;;;;;;;5056686;28;20025;-81
2023/07/26 10:42:58;;;;;;;36.92;19.17;;;;;;;;;;5056747;28;20040;-80
2023/07/26 10:45:37;;;;;;;41.22;20.98;;;;;;;;;;5056344;28;20040;-79
2023/07/26 10:48:03;;;;;;;37.60;20.95;;;;;;;;;;5038818;28;20021;-80
2023/07/26 10:50:30;;;;;;;44.90;21.92;;;;;;;;;;5039185;28;20425;-81
2023/07/26 10:52:55;;;;;;;43.67;22.27;;;;;;;;;;5022814;28;20128;-79
2023/07/26 10:55:23;;;;;;;44.15;21.67;;;;;;;;;;5038700;28;20527;-78
2023/07/26 10:57:48;;;;;;;42.58;22.08;;;;;;;;;;5038643;28;20021;-78
2023/07/26 11:00:18;;;;;;;40.45;22.80;;;;;;;;;;5038317;28;20036;-80
2023/07/26 11:02:46;;;;;;;47.03;22.50;;;;;;;;;;5056588;28;20025;-81
2023/07/26 11:05:17;;;;;;;52.22;23.88;;;;;;;;;;5038696;28;20033;-81
2023/07/26 11:07:58;;;;;;;45.65;24.60;;;;;;;;;;5056268;28;20361;-79
2023/07/26 11:10:30;;;;;;;46.40;24.45;;;;;;;;;;5055925;28;20029;-81
2023/07/26 11:13:16;;;;;;;43.25;24.60;;;;;;;;;;5038526;28;20033;-80
2023/07/26 11:15:49;;;;;;;41.70;23.58;;;;;;;;;;5045545;28;20127;-78
2023/07/26 11:18:17;;;;;;;41.72;22.83;;;;;;;;;;5056571;28;20393;-81
2023/07/26 11:20:46;;;;;;;49.05;24.15;;;;;;;;;;5055942;28;20029;-81
2023/07/26 11:23:22;;;;;;;39.67;24.27;;;;;;;;;;5055893;28;20021;-82
2023/07/26 11:25:53;;;;;;;49.15;24.17;;;;;;;;;;5055897;28;20135;-79
2023/07/26 11:28:19;;;;;;;42.38;23.38;;;;;;;;;;5055725;28;20044;-81
2023/07/26 11:30:52;;;;;;;43.25;23.45;;;;;;;;;;5055868;28;20029;-81
2023/07/26 11:33:31;;;;;;;37.08;24.25;;;;;;;;;;5022021;28;20036;-80
2023/07/26 11:35:57;;;;;;;38.17;24.33;;;;;;;;;;5055742;28;20136;-80
2023/07/26 11:38:23;;;;;;;41.47;23.80;;;;;;;;;;5055477;28;20076;-80
2023/07/26 11:40:50;;;;;;;40.33;22.67;;;;;;;;;;5055492;28;20024;-79
2023/07/26 11:43:15;;;;;;;42.38;23.55;;;;;;;;;;5038179;28;20027;-78
2023/07/26 11:45:42;;;;;;;35.85;22.35;;;;;;;;;;5037685;28;20127;-80
2023/07/26 11:48:09;;;;;;;42.03;22.15;;;;;;;;;;5055768;28;20032;-82
2023/07/26 11:50:36;;;;;;;40.53;21.23;;;;;;;;;;5038321;28;20027;-81
2023/07/26 11:53:11;;;;;;;39.40;20.92;;;;;;;;;;5021521;28;20029;-83
2023/07/26 11:55:41;;;;;;;37.28;20.65;;;;;;;;;;5022405;28;20120;-80
2023/07/26 11:58:08;;;;;;;43.60;18.35;;;;;;;;;;5037393;28;20021;-80
2023/07/26 12:00:38;;;;;;;37.05;17.88;;;;;;;;;;5055292;28;20111;-79
2023/07/26 12:03:05;;;;;;;33.42;18.17;;;;;;;;;;5037895;28;20013;-81
2023/07/26 12:05:30;;;;;;;34.95;17.27;;;;;;;;;;5055146;28;20182;-80
2023/07/26 12:08:01;;;;;;;46.08;17.30;;;;;;;;;;5021325;28;20483;-80
2023/07/26 12:10:33;;;;;;;40.30;17.13;;;;;;;;;;5037822;28;20024;-80
2023/07/26 12:12:59;;;;;;;32.55;16.23;;;;;;;;;;5054605;28;20029;-80
2023/07/26 12:15:25;;;;;;;32.72;15.85;;;;;;;;;;5037544;28;20029;-80
2023/07/26 12:17:54;;;;;;;34.88;15.65;;;;;;;;;;5055159;28;20036;-81
2023/07/26 12:20:23;;;;;;;31.58;14.63;;;;;;;;;;5054627;28;20108;-79
2023/07/26 12:22:52;;;;;;;28.25;16.00;;;;;;;;;;5054457;28;20036;-80
2023/07/26 12:25:18;;;;;;;32.50;14.23;;;;;;;;;;5054722;28;20144;-80
2023/07/26 12:27:44;;;;;;;24.10;14.00;;;;;;;;;;5036793;28;20123;-80
2023/07/26 12:30:13;;;;;;;25.17;14.00;;;;;;;;;;5054600;28;20029;-80
2023/07/26 12:32:38;;;;;;;31.23;14.07;;;;;;;;;;5054920;28;20033;-80
2023/07/26 12:35:22;;;;;;;30.58;15.88;;;;;;;;;;5055008;28;20033;-80
2023/07/26 12:37:49;;;;;;;35.55;16.20;;;;;;;;;;5054615;28;20041;-80
2023/07/26 12:40:19;;;;;;;31.98;16.25;;;;;;;;;;5036697;28;20025;-80
2023/07/26 12:42:44;;;;;;;31.02;16.77;;;;;;;;;;5036905;28;20025;-80
2023/07/26 12:45:10;;;;;;;26.92;17.02;;;;;;;;;;5054411;28;20043;-80
2023/07/26 12:47:35;;;;;;;29.77;17.75;;;;;;;;;;5054545;28;20036;-80
2023/07/26 12:50:00;;;;;;;28.13;17.45;;;;;;;;;;5036729;28;20091;-80
2023/07/26 12:52:26;;;;;;;32.88;17.15;;;;;;;;;;5054897;28;20425;-80
2023/07/26 12:54:52;;;;;;;31.35;18.17;;;;;;;;;;5036521;28;20466;-81
2023/07/26 12:57:18;;;;;;;31.23;19.60;;;;;;;;;;5054425;28;20029;-80
2023/07/26 12:59:43;;;;;;;40.42;19.48;;;;;;;;;;5054136;28;20079;-80
2023/07/26 13:02:09;;;;;;;31.60;20.15;;;;;;;;;;5054692;28;20458;-80
2023/07/26 13:04:34;;;;;;;35.80;20.63;;;;;;;;;;5054115;28;20497;-80
2023/07/26 13:07:00;;;;;;;38.45;21.05;;;;;;;;;;5054143;28;20434;-81
2023/07/26 13:09:25;;;;;;;36.45;20.40;;;;;;;;;;5053778;28;20029;-81
2023/07/26 13:11:50;;;;;;;38.65;21.30;;;;;;;;;;5036417;28;20083;-80
2023/07/26 13:14:16;;;;;;;37.05;21.98;;;;;;;;;;5054284;28;20158;-81
2023/07/26 13:16:41;;;;;;;34.55;20.13;;;;;;;;;;5053932;28;20079;-81
2023/07/26 13:19:07;;;;;;;36.10;22.33;;;;;;;;;;5053807;28;20033;-80
2023/07/26 13:21:32;;;;;;;40.15;21.63;;;;;;;;;;5054284;28;20036;-81
2023/07/26 13:23:58;;;;;;;34.15;21.33;;;;;;;;;;5053762;28;20377;-81
2023/07/26 13:26:23;;;;;;;37.75;21.48;;;;;;;;;;5036017;28;20073;-80
2023/07/26 13:28:49;;;;;;;36.55;21.90;;;;;;;;;;5036183;28;20462;-80
2023/07/26 13:31:14;;;;;;;38.10;22.65;;;;;;;;;;5054019;28;20439;-80
2023/07/26 13:33:40;;;;;;;38.15;21.85;;;;;;;;;;5023056;28;20025;-80
2023/07/26 13:36:05;;;;;;;32.05;21.23;;;;;;;;;;5058109;28;20041;-80
2023/07/26 13:38:30;;;;;;;33.58;20.17;;;;;;;;;;5057685;28;20032;-81
2023/07/26 13:40:56;;;;;;;31.77;17.92;;;;;;;;;;5058112;28;20047;-80
2023/07/26 13:43:22;;;;;;;18.85;13.98;;;;;;;;;;5057814;28;20120;-80
2023/07/26 13:45:47;;;;;;;25.35;15.07;;;;;;;;;;5058052;28;20044;-81
2023/07/26 13:48:12;;;;;;;19.70;14.43;;;;;;;;;;5040116;28;20588;-80
2023/07/26 13:50:38;;;;;;;20.63;13.13;;;;;;;;;;5057679;28;20029;-81
2023/07/26 13:53:03;;;;;;;23.70;12.43;;;;;;;;;;5057506;28;20036;-81
2023/07/26 13:55:29;;;;;;;17.45;10.60;;;;;;;;;;5057561;28;20039;-81
2023/07/26 13:57:54;;;;;;;19.58;10.27;;;;;;;;;;5039617;28;20037;-80
2023/07/26 14:00:20;;;;;;;17.88;9.45;;;;;;;;;;5057497;28;20079;-81
2023/07/26 14:02:45;;;;;;;16.38;10.40;;;;;;;;;;5056155;28;20040;-81
2023/07/26 14:05:11;;;;;;;19.35;8.95;;;;;;;;;;5039767;28;20037;-80
2023/07/26 14:07:38;;;;;;;12.55;7.85;;;;;;;;;;5022950;28;20029;-80
2023/07/26 14:10:03;;;;;;;12.98;8.02;;;;;;;;;;5057243;28;20054;-80
2023/07/26 14:12:29;;;;;;;17.10;7.60;;;;;;;;;;5039896;28;20025;-80
2023/07/26 14:14:54;;;;;;;13.40;7.40;;;;;;;;;;5057717;28;20047;-80
2023/07/26 14:17:20;;;;;;;15.30;7.30;;;;;;;;;;5057304;28;20473;-79